sensor_id;sensor_type;location;lat;lon;timestamp;P1;durP1;ratioP1;P2;durP2;ratioP2
36501;SDS011;25393;46.108;3.390;2023-04-25T00:00:38;5.95;;;2.05;;
36501;SDS011;25393;46.108;3.390;2023-04-25T00:03:05;3.60;;;2.10;;
36501;SDS011;25393;46.108;3.390;2023-04-25T00:05:32;5.13;;;2.80;;
36501;SDS011;25393;46.108;3.390;2023-04-25T00:07:58;8.20;;;2.30;;
36501;SDS011;25393;46.108;3.390;2023-04-25T00:10:25;10.10;;;2.30;;
36501;SDS011;25393;46.108;3.390;2023-04-25T00:12:51;4.20;;;2.00;;
36501;SDS011;25393;46.108;3.390;2023-04-25T00:15:18;9.13;;;2.45;;
36501;SDS011;25393;46.108;3.390;2023-04-25T00:17:44;4.97;;;2.42;;
36501;SDS011;25393;46.108;3.390;2023-04-25T00:20:14;5.00;;;2.72;;
36501;SDS011;25393;46.108;3.390;2023-04-25T00:22:44;5.53;;;2.50;;
36501;SDS011;25393;46.108;3.390;2023-04-25T00:25:13;3.13;;;1.95;;
36501;SDS011;25393;46.108;3.390;2023-04-25T00:27:40;2.72;;;1.95;;
36501;SDS011;25393;46.108;3.390;2023-04-25T00:30:08;4.72;;;1.80;;
36501;SDS011;25393;46.108;3.390;2023-04-25T00:32:34;2.97;;;1.80;;
36501;SDS011;25393;46.108;3.390;2023-04-25T00:35:01;6.65;;;2.10;;
36501;SDS011;25393;46.108;3.390;2023-04-25T00:37:28;3.17;;;1.90;;
36501;SDS011;25393;46.108;3.390;2023-04-25T00:39:54;5.65;;;2.33;;
36501;SDS011;25393;46.108;3.390;2023-04-25T00:42:22;6.13;;;2.28;;
36501;SDS011;25393;46.108;3.390;2023-04-25T00:44:49;4.68;;;2.05;;
36501;SDS011;25393;46.108;3.390;2023-04-25T00:47:16;4.00;;;2.35;;
36501;SDS011;25393;46.108;3.390;2023-04-25T00:49:46;5.10;;;2.30;;
36501;SDS011;25393;46.108;3.390;2023-04-25T00:52:12;3.38;;;1.83;;
36501;SDS011;25393;46.108;3.390;2023-04-25T00:54:39;7.75;;;2.90;;
36501;SDS011;25393;46.108;3.390;2023-04-25T00:57:06;5.07;;;1.85;;
36501;SDS011;25393;46.108;3.390;2023-04-25T00:59:32;3.80;;;2.20;;
36501;SDS011;25393;46.108;3.390;2023-04-25T01:01:59;8.10;;;2.20;;
36501;SDS011;25393;46.108;3.390;2023-04-25T01:04:27;5.30;;;1.95;;
36501;SDS011;25393;46.108;3.390;2023-04-25T01:06:54;5.50;;;1.80;;
36501;SDS011;25393;46.108;3.390;2023-04-25T01:09:20;5.78;;;1.98;;
36501;SDS011;25393;46.108;3.390;2023-04-25T01:11:48;3.28;;;2.17;;
36501;SDS011;25393;46.108;3.390;2023-04-25T01:14:17;5.47;;;2.10;;
36501;SDS011;25393;46.108;3.390;2023-04-25T01:16:46;4.47;;;2.28;;
36501;SDS011;25393;46.108;3.390;2023-04-25T01:19:13;3.60;;;1.80;;
36501;SDS011;25393;46.108;3.390;2023-04-25T01:21:42;3.35;;;1.67;;
36501;SDS011;25393;46.108;3.390;2023-04-25T01:24:09;8.38;;;1.92;;
36501;SDS011;25393;46.108;3.390;2023-04-25T01:26:36;5.03;;;2.20;;
36501;SDS011;25393;46.108;3.390;2023-04-25T01:29:04;6.75;;;1.85;;
36501;SDS011;25393;46.108;3.390;2023-04-25T01:31:31;6.45;;;1.90;;
36501;SDS011;25393;46.108;3.390;2023-04-25T01:33:58;3.58;;;1.73;;
36501;SDS011;25393;46.108;3.390;2023-04-25T01:36:25;5.18;;;1.60;;
36501;SDS011;25393;46.108;3.390;2023-04-25T01:38:51;5.72;;;2.45;;
36501;SDS011;25393;46.108;3.390;2023-04-25T01:41:24;3.03;;;1.95;;
36501;SDS011;25393;46.108;3.390;2023-04-25T01:43:54;7.60;;;1.98;;
36501;SDS011;25393;46.108;3.390;2023-04-25T01:46:24;3.42;;;1.85;;
36501;SDS011;25393;46.108;3.390;2023-04-25T01:48:53;5.18;;;2.03;;
36501;SDS011;25393;46.108;3.390;2023-04-25T01:51:20;4.00;;;1.85;;
36501;SDS011;25393;46.108;3.390;2023-04-25T01:53:55;6.88;;;1.90;;
36501;SDS011;25393;46.108;3.390;2023-04-25T01:56:24;3.95;;;1.90;;
36501;SDS011;25393;46.108;3.390;2023-04-25T01:58:51;4.57;;;2.30;;
36501;SDS011;25393;46.108;3.390;2023-04-25T02:01:20;6.38;;;2.20;;
36501;SDS011;25393;46.108;3.390;2023-04-25T02:03:49;7.97;;;2.38;;
36501;SDS011;25393;46.108;3.390;2023-04-25T02:06:16;8.90;;;2.92;;
36501;SDS011;25393;46.108;3.390;2023-04-25T02:08:42;8.18;;;3.15;;
36501;SDS011;25393;46.108;3.390;2023-04-25T02:11:08;8.32;;;3.13;;
36501;SDS011;25393;46.108;3.390;2023-04-25T02:13:35;8.10;;;2.65;;
36501;SDS011;25393;46.108;3.390;2023-04-25T02:16:01;8.02;;;2.47;;
36501;SDS011;25393;46.108;3.390;2023-04-25T02:18:28;8.30;;;2.55;;
36501;SDS011;25393;46.108;3.390;2023-04-25T02:20:55;6.75;;;2.40;;
36501;SDS011;25393;46.108;3.390;2023-04-25T02:23:21;6.63;;;2.85;;
36501;SDS011;25393;46.108;3.390;2023-04-25T02:25:56;11.55;;;2.72;;
36501;SDS011;25393;46.108;3.390;2023-04-25T02:28:26;3.78;;;2.30;;
36501;SDS011;25393;46.108;3.390;2023-04-25T02:30:53;8.13;;;3.33;;
36501;SDS011;25393;46.108;3.390;2023-04-25T02:33:26;11.38;;;3.13;;
36501;SDS011;25393;46.108;3.390;2023-04-25T02:35:52;6.90;;;2.20;;
36501;SDS011;25393;46.108;3.390;2023-04-25T02:38:19;6.00;;;2.60;;
36501;SDS011;25393;46.108;3.390;2023-04-25T02:40:46;4.30;;;2.30;;
36501;SDS011;25393;46.108;3.390;2023-04-25T02:43:12;5.00;;;2.13;;
36501;SDS011;25393;46.108;3.390;2023-04-25T02:45:39;9.18;;;2.72;;
36501;SDS011;25393;46.108;3.390;2023-04-25T02:48:05;7.38;;;2.33;;
36501;SDS011;25393;46.108;3.390;2023-04-25T02:50:32;7.80;;;2.63;;
36501;SDS011;25393;46.108;3.390;2023-04-25T02:52:58;4.65;;;2.72;;
36501;SDS011;25393;46.108;3.390;2023-04-25T02:55:28;6.72;;;2.42;;
36501;SDS011;25393;46.108;3.390;2023-04-25T02:57:58;9.68;;;2.40;;
36501;SDS011;25393;46.108;3.390;2023-04-25T03:00:27;5.40;;;2.72;;
36501;SDS011;25393;46.108;3.390;2023-04-25T03:02:54;4.88;;;2.85;;
36501;SDS011;25393;46.108;3.390;2023-04-25T03:05:22;5.20;;;2.55;;
36501;SDS011;25393;46.108;3.390;2023-04-25T03:07:48;8.07;;;2.28;;
36501;SDS011;25393;46.108;3.390;2023-04-25T03:10:15;5.35;;;2.50;;
36501;SDS011;25393;46.108;3.390;2023-04-25T03:12:41;4.90;;;2.50;;
36501;SDS011;25393;46.108;3.390;2023-04-25T03:15:08;4.85;;;2.63;;
36501;SDS011;25393;46.108;3.390;2023-04-25T03:17:35;5.55;;;2.90;;
36501;SDS011;25393;46.108;3.390;2023-04-25T03:20:01;4.30;;;2.35;;
36501;SDS011;25393;46.108;3.390;2023-04-25T03:22:30;5.32;;;2.20;;
36501;SDS011;25393;46.108;3.390;2023-04-25T03:24:59;6.88;;;2.90;;
36501;SDS011;25393;46.108;3.390;2023-04-25T03:27:26;9.88;;;2.45;;
36501;SDS011;25393;46.108;3.390;2023-04-25T03:29:55;6.60;;;2.17;;
36501;SDS011;25393;46.108;3.390;2023-04-25T03:32:24;3.17;;;1.75;;
36501;SDS011;25393;46.108;3.390;2023-04-25T03:34:51;6.35;;;2.35;;
36501;SDS011;25393;46.108;3.390;2023-04-25T03:37:17;3.20;;;2.15;;
36501;SDS011;25393;46.108;3.390;2023-04-25T03:39:44;4.78;;;2.60;;
36501;SDS011;25393;46.108;3.390;2023-04-25T03:42:10;7.35;;;3.25;;
36501;SDS011;25393;46.108;3.390;2023-04-25T03:44:37;4.57;;;2.17;;
36501;SDS011;25393;46.108;3.390;2023-04-25T03:47:03;3.65;;;2.10;;
36501;SDS011;25393;46.108;3.390;2023-04-25T03:49:30;6.70;;;3.33;;
36501;SDS011;25393;46.108;3.390;2023-04-25T03:52:02;7.57;;;2.80;;
36501;SDS011;25393;46.108;3.390;2023-04-25T03:54:28;4.72;;;2.55;;
36501;SDS011;25393;46.108;3.390;2023-04-25T03:56:55;8.32;;;3.00;;
36501;SDS011;25393;46.108;3.390;2023-04-25T03:59:22;5.82;;;2.53;;
36501;SDS011;25393;46.108;3.390;2023-04-25T04:01:48;6.43;;;3.42;;
36501;SDS011;25393;46.108;3.390;2023-04-25T04:04:15;6.10;;;2.67;;
36501;SDS011;25393;46.108;3.390;2023-04-25T04:06:42;7.78;;;2.45;;
36501;SDS011;25393;46.108;3.390;2023-04-25T04:09:08;11.63;;;3.45;;
36501;SDS011;25393;46.108;3.390;2023-04-25T04:11:37;6.85;;;2.67;;
36501;SDS011;25393;46.108;3.390;2023-04-25T04:14:05;8.88;;;2.85;;
36501;SDS011;25393;46.108;3.390;2023-04-25T04:16:32;14.98;;;3.60;;
36501;SDS011;25393;46.108;3.390;2023-04-25T04:19:02;6.38;;;2.50;;
36501;SDS011;25393;46.108;3.390;2023-04-25T04:21:31;4.75;;;2.05;;
36501;SDS011;25393;46.108;3.390;2023-04-25T04:24:03;16.98;;;2.80;;
36501;SDS011;25393;46.108;3.390;2023-04-25T04:26:30;8.18;;;3.13;;
36501;SDS011;25393;46.108;3.390;2023-04-25T04:28:58;17.02;;;3.47;;
36501;SDS011;25393;46.108;3.390;2023-04-25T04:31:32;13.27;;;3.58;;
36501;SDS011;25393;46.108;3.390;2023-04-25T04:33:59;9.45;;;3.45;;
36501;SDS011;25393;46.108;3.390;2023-04-25T04:36:28;10.75;;;3.50;;
36501;SDS011;25393;46.108;3.390;2023-04-25T04:38:57;8.23;;;3.05;;
36501;SDS011;25393;46.108;3.390;2023-04-25T04:41:24;7.07;;;3.20;;
36501;SDS011;25393;46.108;3.390;2023-04-25T04:43:50;9.38;;;2.40;;
36501;SDS011;25393;46.108;3.390;2023-04-25T04:46:19;7.72;;;2.90;;
36501;SDS011;25393;46.108;3.390;2023-04-25T04:48:46;4.93;;;2.55;;
36501;SDS011;25393;46.108;3.390;2023-04-25T04:51:12;12.95;;;2.53;;
36501;SDS011;25393;46.108;3.390;2023-04-25T04:53:39;6.50;;;2.85;;
36501;SDS011;25393;46.108;3.390;2023-04-25T04:56:05;6.13;;;2.30;;
36501;SDS011;25393;46.108;3.390;2023-04-25T04:58:32;11.52;;;2.75;;
36501;SDS011;25393;46.108;3.390;2023-04-25T05:00:59;11.30;;;2.88;;
36501;SDS011;25393;46.108;3.390;2023-04-25T05:03:28;7.18;;;2.67;;
36501;SDS011;25393;46.108;3.390;2023-04-25T05:05:57;6.85;;;2.90;;
36501;SDS011;25393;46.108;3.390;2023-04-25T05:08:23;7.55;;;2.60;;
36501;SDS011;25393;46.108;3.390;2023-04-25T05:10:50;7.70;;;2.45;;
36501;SDS011;25393;46.108;3.390;2023-04-25T05:13:16;10.88;;;2.75;;
36501;SDS011;25393;46.108;3.390;2023-04-25T05:15:43;6.18;;;2.35;;
36501;SDS011;25393;46.108;3.390;2023-04-25T05:18:09;5.40;;;3.08;;
36501;SDS011;25393;46.108;3.390;2023-04-25T05:20:36;6.30;;;3.08;;
36501;SDS011;25393;46.108;3.390;2023-04-25T05:23:02;5.68;;;2.35;;
36501;SDS011;25393;46.108;3.390;2023-04-25T05:25:33;7.05;;;2.40;;
36501;SDS011;25393;46.108;3.390;2023-04-25T05:28:02;5.82;;;2.72;;
36501;SDS011;25393;46.108;3.390;2023-04-25T05:30:28;12.48;;;2.80;;
36501;SDS011;25393;46.108;3.390;2023-04-25T05:33:02;16.40;;;3.70;;
36501;SDS011;25393;46.108;3.390;2023-04-25T05:35:29;4.50;;;2.85;;
36501;SDS011;25393;46.108;3.390;2023-04-25T05:37:58;7.85;;;2.70;;
36501;SDS011;25393;46.108;3.390;2023-04-25T05:40:27;4.75;;;2.33;;
36501;SDS011;25393;46.108;3.390;2023-04-25T05:42:54;8.57;;;2.30;;
36501;SDS011;25393;46.108;3.390;2023-04-25T05:45:20;4.53;;;1.98;;
36501;SDS011;25393;46.108;3.390;2023-04-25T05:47:47;5.10;;;2.55;;
36501;SDS011;25393;46.108;3.390;2023-04-25T05:50:13;6.05;;;2.65;;
36501;SDS011;25393;46.108;3.390;2023-04-25T05:52:40;9.77;;;2.63;;
36501;SDS011;25393;46.108;3.390;2023-04-25T05:55:06;14.02;;;3.30;;
36501;SDS011;25393;46.108;3.390;2023-04-25T05:57:33;7.32;;;2.70;;
36501;SDS011;25393;46.108;3.390;2023-04-25T06:00:01;3.97;;;2.22;;
36501;SDS011;25393;46.108;3.390;2023-04-25T06:02:28;3.15;;;2.00;;
36501;SDS011;25393;46.108;3.390;2023-04-25T06:04:57;2.90;;;2.17;;
36501;SDS011;25393;46.108;3.390;2023-04-25T06:07:24;6.50;;;2.38;;
36501;SDS011;25393;46.108;3.390;2023-04-25T06:09:51;9.75;;;3.25;;
36501;SDS011;25393;46.108;3.390;2023-04-25T06:12:18;6.65;;;3.00;;
36501;SDS011;25393;46.108;3.390;2023-04-25T06:14:45;7.78;;;2.55;;
36501;SDS011;25393;46.108;3.390;2023-04-25T06:17:14;9.88;;;2.40;;
36501;SDS011;25393;46.108;3.390;2023-04-25T06:19:41;6.85;;;1.88;;
36501;SDS011;25393;46.108;3.390;2023-04-25T06:22:07;7.18;;;2.28;;
36501;SDS011;25393;46.108;3.390;2023-04-25T06:24:34;4.75;;;2.10;;
36501;SDS011;25393;46.108;3.390;2023-04-25T06:27:04;7.50;;;2.50;;
36501;SDS011;25393;46.108;3.390;2023-04-25T06:29:34;4.53;;;2.63;;
36501;SDS011;25393;46.108;3.390;2023-04-25T06:32:01;10.88;;;2.28;;
36501;SDS011;25393;46.108;3.390;2023-04-25T06:34:28;5.47;;;2.38;;
36501;SDS011;25393;46.108;3.390;2023-04-25T06:36:57;7.68;;;2.65;;
36501;SDS011;25393;46.108;3.390;2023-04-25T06:39:23;8.50;;;2.33;;
36501;SDS011;25393;46.108;3.390;2023-04-25T06:41:51;6.88;;;2.40;;
36501;SDS011;25393;46.108;3.390;2023-04-25T06:44:17;5.78;;;2.53;;
36501;SDS011;25393;46.108;3.390;2023-04-25T06:46:47;4.97;;;3.05;;
36501;SDS011;25393;46.108;3.390;2023-04-25T06:49:13;6.47;;;2.58;;
36501;SDS011;25393;46.108;3.390;2023-04-25T06:51:42;8.20;;;2.60;;
36501;SDS011;25393;46.108;3.390;2023-04-25T06:54:11;6.13;;;2.40;;
36501;SDS011;25393;46.108;3.390;2023-04-25T06:56:38;7.32;;;1.83;;
36501;SDS011;25393;46.108;3.390;2023-04-25T06:59:05;9.10;;;2.47;;
36501;SDS011;25393;46.108;3.390;2023-04-25T07:01:33;6.68;;;2.15;;
36501;SDS011;25393;46.108;3.390;2023-04-25T07:04:01;3.97;;;1.67;;
36501;SDS011;25393;46.108;3.390;2023-04-25T07:06:28;5.40;;;2.00;;
36501;SDS011;25393;46.108;3.390;2023-04-25T07:08:57;19.30;;;3.10;;
36501;SDS011;25393;46.108;3.390;2023-04-25T07:11:23;14.02;;;2.40;;
36501;SDS011;25393;46.108;3.390;2023-04-25T07:13:50;7.95;;;2.38;;
36501;SDS011;25393;46.108;3.390;2023-04-25T07:16:16;10.25;;;2.40;;
36501;SDS011;25393;46.108;3.390;2023-04-25T07:18:43;9.10;;;1.92;;
36501;SDS011;25393;46.108;3.390;2023-04-25T07:21:09;5.45;;;2.33;;
36501;SDS011;25393;46.108;3.390;2023-04-25T07:23:36;11.88;;;2.42;;
36501;SDS011;25393;46.108;3.390;2023-04-25T07:26:03;13.77;;;3.05;;
36501;SDS011;25393;46.108;3.390;2023-04-25T07:28:33;4.72;;;1.73;;
36501;SDS011;25393;46.108;3.390;2023-04-25T07:31:03;3.97;;;1.77;;
36501;SDS011;25393;46.108;3.390;2023-04-25T07:33:33;4.90;;;1.50;;
36501;SDS011;25393;46.108;3.390;2023-04-25T07:36:02;3.35;;;2.08;;
36501;SDS011;25393;46.108;3.390;2023-04-25T07:38:32;7.88;;;2.20;;
36501;SDS011;25393;46.108;3.390;2023-04-25T07:40:59;6.65;;;2.05;;
36501;SDS011;25393;46.108;3.390;2023-04-25T07:43:28;4.90;;;1.65;;
36501;SDS011;25393;46.108;3.390;2023-04-25T07:45:59;3.30;;;1.60;;
36501;SDS011;25393;46.108;3.390;2023-04-25T07:48:29;6.38;;;2.10;;
36501;SDS011;25393;46.108;3.390;2023-04-25T07:51:02;5.63;;;1.95;;
36501;SDS011;25393;46.108;3.390;2023-04-25T07:53:31;7.10;;;1.58;;
36501;SDS011;25393;46.108;3.390;2023-04-25T07:56:00;6.60;;;1.88;;
36501;SDS011;25393;46.108;3.390;2023-04-25T07:58:28;10.77;;;2.13;;
36501;SDS011;25393;46.108;3.390;2023-04-25T08:00:57;3.28;;;1.63;;
36501;SDS011;25393;46.108;3.390;2023-04-25T08:03:24;3.80;;;1.75;;
36501;SDS011;25393;46.108;3.390;2023-04-25T08:05:51;7.25;;;1.73;;
36501;SDS011;25393;46.108;3.390;2023-04-25T08:08:18;4.15;;;1.75;;
36501;SDS011;25393;46.108;3.390;2023-04-25T08:10:44;5.80;;;2.13;;
36501;SDS011;25393;46.108;3.390;2023-04-25T08:13:11;7.38;;;2.40;;
36501;SDS011;25393;46.108;3.390;2023-04-25T08:15:37;4.30;;;1.73;;
36501;SDS011;25393;46.108;3.390;2023-04-25T08:18:04;5.80;;;2.13;;
36501;SDS011;25393;46.108;3.390;2023-04-25T08:20:31;7.72;;;1.85;;
36501;SDS011;25393;46.108;3.390;2023-04-25T08:22:58;8.35;;;2.22;;
36501;SDS011;25393;46.108;3.390;2023-04-25T08:25:30;7.15;;;2.38;;
36501;SDS011;25393;46.108;3.390;2023-04-25T08:27:57;7.82;;;1.58;;
36501;SDS011;25393;46.108;3.390;2023-04-25T08:30:29;6.93;;;1.92;;
36501;SDS011;25393;46.108;3.390;2023-04-25T08:32:58;6.88;;;2.10;;
36501;SDS011;25393;46.108;3.390;2023-04-25T08:35:28;4.15;;;1.27;;
36501;SDS011;25393;46.108;3.390;2023-04-25T08:37:57;4.85;;;1.25;;
36501;SDS011;25393;46.108;3.390;2023-04-25T08:40:23;7.68;;;1.65;;
36501;SDS011;25393;46.108;3.390;2023-04-25T08:42:57;8.45;;;2.03;;
36501;SDS011;25393;46.108;3.390;2023-04-25T08:45:25;2.80;;;1.52;;
36501;SDS011;25393;46.108;3.390;2023-04-25T08:47:54;6.32;;;1.38;;
36501;SDS011;25393;46.108;3.390;2023-04-25T08:50:23;8.73;;;1.75;;
36501;SDS011;25393;46.108;3.390;2023-04-25T08:52:51;6.18;;;1.90;;
36501;SDS011;25393;46.108;3.390;2023-04-25T08:55:20;9.52;;;2.20;;
36501;SDS011;25393;46.108;3.390;2023-04-25T08:57:47;6.43;;;1.42;;
36501;SDS011;25393;46.108;3.390;2023-04-25T09:00:14;4.90;;;1.30;;
36501;SDS011;25393;46.108;3.390;2023-04-25T09:02:41;2.55;;;1.20;;
36501;SDS011;25393;46.108;3.390;2023-04-25T09:05:11;3.47;;;1.20;;
36501;SDS011;25393;46.108;3.390;2023-04-25T09:07:39;5.28;;;1.52;;
36501;SDS011;25393;46.108;3.390;2023-04-25T09:10:06;4.28;;;1.23;;
36501;SDS011;25393;46.108;3.390;2023-04-25T09:12:33;7.15;;;1.52;;
36501;SDS011;25393;46.108;3.390;2023-04-25T09:15:08;5.60;;;1.40;;
36501;SDS011;25393;46.108;3.390;2023-04-25T09:17:36;3.70;;;1.80;;
36501;SDS011;25393;46.108;3.390;2023-04-25T09:20:07;4.57;;;1.52;;
36501;SDS011;25393;46.108;3.390;2023-04-25T09:22:36;2.60;;;1.30;;
36501;SDS011;25393;46.108;3.390;2023-04-25T09:25:12;3.35;;;1.13;;
36501;SDS011;25393;46.108;3.390;2023-04-25T09:27:50;5.45;;;1.20;;
36501;SDS011;25393;46.108;3.390;2023-04-25T09:30:18;1.90;;;1.20;;
36501;SDS011;25393;46.108;3.390;2023-04-25T09:32:45;3.22;;;1.10;;
36501;SDS011;25393;46.108;3.390;2023-04-25T09:35:11;3.75;;;1.30;;
36501;SDS011;25393;46.108;3.390;2023-04-25T09:37:51;4.97;;;2.90;;
36501;SDS011;25393;46.108;3.390;2023-04-25T09:40:17;6.05;;;2.30;;
36501;SDS011;25393;46.108;3.390;2023-04-25T09:42:44;8.60;;;1.48;;
36501;SDS011;25393;46.108;3.390;2023-04-25T09:45:12;5.32;;;1.45;;
36501;SDS011;25393;46.108;3.390;2023-04-25T09:47:41;2.67;;;1.23;;
36501;SDS011;25393;46.108;3.390;2023-04-25T09:50:13;5.53;;;1.35;;
36501;SDS011;25393;46.108;3.390;2023-04-25T09:52:42;5.80;;;3.63;;
36501;SDS011;25393;46.108;3.390;2023-04-25T09:55:09;2.38;;;1.35;;
36501;SDS011;25393;46.108;3.390;2023-04-25T09:57:35;5.00;;;2.10;;
36501;SDS011;25393;46.108;3.390;2023-04-25T10:00:06;1.88;;;1.17;;
36501;SDS011;25393;46.108;3.390;2023-04-25T10:02:37;4.32;;;1.60;;
36501;SDS011;25393;46.108;3.390;2023-04-25T10:05:05;6.95;;;1.67;;
36501;SDS011;25393;46.108;3.390;2023-04-25T10:07:34;3.13;;;1.50;;
36501;SDS011;25393;46.108;3.390;2023-04-25T10:10:04;4.53;;;2.95;;
36501;SDS011;25393;46.108;3.390;2023-04-25T10:12:32;3.20;;;1.65;;
36501;SDS011;25393;46.108;3.390;2023-04-25T10:15:00;3.95;;;2.33;;
36501;SDS011;25393;46.108;3.390;2023-04-25T10:17:27;8.20;;;1.95;;
36501;SDS011;25393;46.108;3.390;2023-04-25T10:19:54;3.58;;;1.90;;
36501;SDS011;25393;46.108;3.390;2023-04-25T10:22:37;4.75;;;1.77;;
36501;SDS011;25393;46.108;3.390;2023-04-25T10:25:07;4.15;;;1.92;;
36501;SDS011;25393;46.108;3.390;2023-04-25T10:27:35;6.90;;;1.92;;
36501;SDS011;25393;46.108;3.390;2023-04-25T10:30:06;6.72;;;1.85;;
36501;SDS011;25393;46.108;3.390;2023-04-25T10:32:39;3.53;;;2.17;;
36501;SDS011;25393;46.108;3.390;2023-04-25T10:35:41;8.02;;;2.22;;
36501;SDS011;25393;46.108;3.390;2023-04-25T10:38:10;3.35;;;1.10;;
36501;SDS011;25393;46.108;3.390;2023-04-25T10:40:40;4.13;;;2.00;;
36501;SDS011;25393;46.108;3.390;2023-04-25T10:46:14;6.18;;;3.63;;
36501;SDS011;25393;46.108;3.390;2023-04-25T10:48:46;4.80;;;3.25;;
36501;SDS011;25393;46.108;3.390;2023-04-25T10:51:24;7.05;;;3.53;;
36501;SDS011;25393;46.108;3.390;2023-04-25T10:54:20;4.63;;;3.42;;
36501;SDS011;25393;46.108;3.390;2023-04-25T10:56:49;7.30;;;3.65;;
36501;SDS011;25393;46.108;3.390;2023-04-25T10:59:17;3.45;;;3.15;;
36501;SDS011;25393;46.108;3.390;2023-04-25T11:01:45;3.53;;;2.88;;
36501;SDS011;25393;46.108;3.390;2023-04-25T11:04:20;4.45;;;2.97;;
36501;SDS011;25393;46.108;3.390;2023-04-25T11:09:34;3.70;;;3.00;;
36501;SDS011;25393;46.108;3.390;2023-04-25T11:12:02;3.28;;;2.97;;
36501;SDS011;25393;46.108;3.390;2023-04-25T11:14:30;4.13;;;3.45;;
36501;SDS011;25393;46.108;3.390;2023-04-25T11:16:59;4.90;;;3.35;;
36501;SDS011;25393;46.108;3.390;2023-04-25T11:19:32;3.25;;;3.05;;
36501;SDS011;25393;46.108;3.390;2023-04-25T11:22:02;3.70;;;3.40;;
36501;SDS011;25393;46.108;3.390;2023-04-25T11:24:32;10.07;;;3.90;;
36501;SDS011;25393;46.108;3.390;2023-04-25T11:27:01;5.50;;;3.50;;
36501;SDS011;25393;46.108;3.390;2023-04-25T11:29:29;7.47;;;3.55;;
36501;SDS011;25393;46.108;3.390;2023-04-25T11:32:03;3.97;;;3.20;;
36501;SDS011;25393;46.108;3.390;2023-04-25T11:34:33;3.70;;;3.45;;
36501;SDS011;25393;46.108;3.390;2023-04-25T11:37:03;5.95;;;3.47;;
36501;SDS011;25393;46.108;3.390;2023-04-25T11:39:33;3.60;;;3.30;;
36501;SDS011;25393;46.108;3.390;2023-04-25T11:42:04;3.15;;;2.70;;
36501;SDS011;25393;46.108;3.390;2023-04-25T11:44:35;3.50;;;3.20;;
36501;SDS011;25393;46.108;3.390;2023-04-25T11:47:01;4.45;;;3.38;;
36501;SDS011;25393;46.108;3.390;2023-04-25T11:49:30;5.78;;;3.00;;
36501;SDS011;25393;46.108;3.390;2023-04-25T11:52:01;3.78;;;3.00;;
36501;SDS011;25393;46.108;3.390;2023-04-25T11:54:27;5.03;;;2.70;;
36501;SDS011;25393;46.108;3.390;2023-04-25T11:56:56;5.40;;;2.83;;
36501;SDS011;25393;46.108;3.390;2023-04-25T11:59:23;7.05;;;2.75;;
36501;SDS011;25393;46.108;3.390;2023-04-25T12:01:51;5.53;;;3.13;;
36501;SDS011;25393;46.108;3.390;2023-04-25T12:04:22;5.20;;;2.88;;
36501;SDS011;25393;46.108;3.390;2023-04-25T12:06:51;4.22;;;3.47;;
36501;SDS011;25393;46.108;3.390;2023-04-25T12:09:33;4.65;;;2.75;;
36501;SDS011;25393;46.108;3.390;2023-04-25T12:12:03;6.65;;;2.88;;
36501;SDS011;25393;46.108;3.390;2023-04-25T12:14:34;10.65;;;3.33;;
36501;SDS011;25393;46.108;3.390;2023-04-25T12:17:04;3.60;;;3.30;;
36501;SDS011;25393;46.108;3.390;2023-04-25T12:19:35;3.65;;;3.30;;
36501;SDS011;25393;46.108;3.390;2023-04-25T12:22:03;3.85;;;3.10;;
36501;SDS011;25393;46.108;3.390;2023-04-25T12:24:33;6.70;;;3.30;;
36501;SDS011;25393;46.108;3.390;2023-04-25T12:27:05;3.47;;;3.17;;
36501;SDS011;25393;46.108;3.390;2023-04-25T12:29:34;5.57;;;3.72;;
36501;SDS011;25393;46.108;3.390;2023-04-25T12:32:15;5.57;;;3.05;;
36501;SDS011;25393;46.108;3.390;2023-04-25T12:34:42;6.15;;;3.10;;
36501;SDS011;25393;46.108;3.390;2023-04-25T12:37:09;5.97;;;2.85;;
36501;SDS011;25393;46.108;3.390;2023-04-25T12:39:36;2.90;;;2.40;;
36501;SDS011;25393;46.108;3.390;2023-04-25T12:42:03;6.13;;;3.08;;
36501;SDS011;25393;46.108;3.390;2023-04-25T12:44:34;3.97;;;2.83;;
36501;SDS011;25393;46.108;3.390;2023-04-25T12:47:01;4.93;;;3.30;;
36501;SDS011;25393;46.108;3.390;2023-04-25T12:49:30;4.75;;;2.70;;
36501;SDS011;25393;46.108;3.390;2023-04-25T12:52:05;3.00;;;2.78;;
36501;SDS011;25393;46.108;3.390;2023-04-25T12:54:34;3.78;;;3.00;;
36501;SDS011;25393;46.108;3.390;2023-04-25T12:57:01;6.25;;;2.97;;
36501;SDS011;25393;46.108;3.390;2023-04-25T12:59:36;4.45;;;3.20;;
36501;SDS011;25393;46.108;3.390;2023-04-25T13:02:05;4.10;;;3.20;;
36501;SDS011;25393;46.108;3.390;2023-04-25T13:04:35;6.07;;;3.20;;
36501;SDS011;25393;46.108;3.390;2023-04-25T13:07:03;6.70;;;3.08;;
36501;SDS011;25393;46.108;3.390;2023-04-25T13:09:35;3.63;;;3.08;;
36501;SDS011;25393;46.108;3.390;2023-04-25T13:12:02;5.32;;;2.97;;
36501;SDS011;25393;46.108;3.390;2023-04-25T13:14:36;4.53;;;3.40;;
36501;SDS011;25393;46.108;3.390;2023-04-25T13:17:05;10.65;;;3.15;;
36501;SDS011;25393;46.108;3.390;2023-04-25T13:19:35;4.15;;;2.88;;
36501;SDS011;25393;46.108;3.390;2023-04-25T13:22:05;5.43;;;2.90;;
36501;SDS011;25393;46.108;3.390;2023-04-25T13:24:31;3.22;;;2.92;;
36501;SDS011;25393;46.108;3.390;2023-04-25T13:27:00;4.85;;;3.15;;
36501;SDS011;25393;46.108;3.390;2023-04-25T13:29:29;4.35;;;2.47;;
36501;SDS011;25393;46.108;3.390;2023-04-25T13:31:56;4.65;;;3.33;;
36501;SDS011;25393;46.108;3.390;2023-04-25T13:34:22;5.57;;;3.35;;
36501;SDS011;25393;46.108;3.390;2023-04-25T13:36:49;3.30;;;3.00;;
36501;SDS011;25393;46.108;3.390;2023-04-25T13:39:15;3.42;;;2.63;;
36501;SDS011;25393;46.108;3.390;2023-04-25T13:41:42;4.35;;;3.10;;
36501;SDS011;25393;46.108;3.390;2023-04-25T13:44:08;3.78;;;3.38;;
36501;SDS011;25393;46.108;3.390;2023-04-25T13:46:36;5.05;;;3.17;;
36501;SDS011;25393;46.108;3.390;2023-04-25T13:49:06;8.32;;;3.10;;
36501;SDS011;25393;46.108;3.390;2023-04-25T13:51:38;6.65;;;3.70;;
36501;SDS011;25393;46.108;3.390;2023-04-25T13:54:05;5.82;;;2.80;;
36501;SDS011;25393;46.108;3.390;2023-04-25T13:56:33;5.90;;;2.95;;
36501;SDS011;25393;46.108;3.390;2023-04-25T13:59:00;5.50;;;3.10;;
36501;SDS011;25393;46.108;3.390;2023-04-25T14:01:30;3.58;;;3.28;;
36501;SDS011;25393;46.108;3.390;2023-04-25T14:04:01;5.75;;;3.10;;
36501;SDS011;25393;46.108;3.390;2023-04-25T14:06:31;4.35;;;2.97;;
36501;SDS011;25393;46.108;3.390;2023-04-25T14:08:59;5.00;;;3.00;;
36501;SDS011;25393;46.108;3.390;2023-04-25T14:11:29;4.88;;;3.10;;
36501;SDS011;25393;46.108;3.390;2023-04-25T14:13:56;3.40;;;3.05;;
36501;SDS011;25393;46.108;3.390;2023-04-25T14:16:22;7.57;;;3.60;;
36501;SDS011;25393;46.108;3.390;2023-04-25T14:18:49;4.43;;;2.80;;
36501;SDS011;25393;46.108;3.390;2023-04-25T14:21:16;4.38;;;3.15;;
36501;SDS011;25393;46.108;3.390;2023-04-25T14:23:42;3.75;;;3.05;;
36501;SDS011;25393;46.108;3.390;2023-04-25T14:26:09;6.03;;;3.67;;
36501;SDS011;25393;46.108;3.390;2023-04-25T14:28:38;5.40;;;2.92;;
36501;SDS011;25393;46.108;3.390;2023-04-25T14:31:05;5.30;;;3.67;;
36501;SDS011;25393;46.108;3.390;2023-04-25T14:33:31;8.02;;;3.60;;
36501;SDS011;25393;46.108;3.390;2023-04-25T14:36:01;4.25;;;3.50;;
36501;SDS011;25393;46.108;3.390;2023-04-25T14:38:30;6.60;;;3.58;;
36501;SDS011;25393;46.108;3.390;2023-04-25T14:40:56;5.70;;;3.38;;
36501;SDS011;25393;46.108;3.390;2023-04-25T14:43:23;6.10;;;3.33;;
36501;SDS011;25393;46.108;3.390;2023-04-25T14:45:49;5.75;;;3.50;;
36501;SDS011;25393;46.108;3.390;2023-04-25T14:48:16;6.10;;;3.70;;
36501;SDS011;25393;46.108;3.390;2023-04-25T14:50:46;3.70;;;3.40;;
36501;SDS011;25393;46.108;3.390;2023-04-25T14:53:12;5.57;;;3.20;;
36501;SDS011;25393;46.108;3.390;2023-04-25T14:55:40;3.78;;;3.38;;
36501;SDS011;25393;46.108;3.390;2023-04-25T14:58:07;5.90;;;3.40;;